createdAt,value
2023-04-18T00:00:35.822Z,95237.00
2023-04-18T00:01:35.849Z,95239.00
2023-04-18T00:02:36.199Z,95239.00
2023-04-18T00:03:36.119Z,95239.00
2023-04-18T00:04:36.053Z,95239.00
2023-04-18T00:05:35.982Z,95237.00
2023-04-18T00:06:36.017Z,95239.00
2023-04-18T00:07:36.076Z,95239.00
2023-04-18T00:08:36.060Z,95235.00
2023-04-18T00:09:36.101Z,95237.00
2023-04-18T00:10:36.159Z,95235.00
2023-04-18T00:11:36.148Z,95233.00
2023-04-18T00:12:36.210Z,95231.00
2023-04-18T00:13:36.184Z,95231.00
2023-04-18T00:14:36.205Z,95231.00
2023-04-18T00:15:36.260Z,95231.00
2023-04-18T00:16:36.330Z,95227.00
2023-04-18T00:17:36.343Z,95231.00
2023-04-18T00:18:36.327Z,95229.00
2023-04-18T00:19:36.340Z,95227.00
2023-04-18T00:20:36.366Z,95227.00
2023-04-18T00:21:36.398Z,95227.00
2023-04-18T00:22:36.411Z,95225.00
2023-04-18T00:23:36.431Z,95227.00
2023-04-18T00:24:36.469Z,95227.00
2023-04-18T00:25:36.518Z,95227.00
2023-04-18T00:26:36.545Z,95227.00
2023-04-18T00:27:36.559Z,95231.00
2023-04-18T00:28:36.586Z,95227.00
2023-04-18T00:29:36.611Z,95229.00
2023-04-18T00:30:36.642Z,95227.00
2023-04-18T00:31:36.653Z,95227.00
2023-04-18T00:32:36.717Z,95227.00
2023-04-18T00:33:36.747Z,95229.00
2023-04-18T00:34:36.792Z,95229.00
2023-04-18T00:35:36.824Z,95231.00
2023-04-18T00:36:36.824Z,95229.00
2023-04-18T00:37:36.846Z,95229.00
2023-04-18T00:38:36.895Z,95229.00
2023-04-18T00:39:36.927Z,95229.00
2023-04-18T00:40:36.969Z,95227.00
2023-04-18T00:41:36.966Z,95227.00
2023-04-18T00:42:37.021Z,95227.00
2023-04-18T00:43:37.064Z,95229.00
2023-04-18T00:44:37.122Z,95229.00
2023-04-18T00:45:37.120Z,95229.00
2023-04-18T00:46:37.250Z,95227.00
2023-04-18T00:47:37.216Z,95225.00
2023-04-18T00:48:37.218Z,95221.00
2023-04-18T00:49:37.265Z,95223.00
2023-04-18T00:50:37.289Z,95221.00
2023-04-18T00:51:37.306Z,95223.00
2023-04-18T00:52:37.359Z,95223.00
2023-04-18T00:53:37.408Z,95221.00
2023-04-18T00:54:37.437Z,95223.00
2023-04-18T00:55:37.472Z,95221.00
2023-04-18T00:56:37.499Z,95225.00
2023-04-18T00:57:37.555Z,95223.00
2023-04-18T00:58:37.579Z,95223.00
2023-04-18T00:59:37.613Z,95219.00
2023-04-18T01:00:37.634Z,95219.00
2023-04-18T01:01:37.714Z,95219.00
2023-04-18T01:02:37.808Z,95217.00
2023-04-18T01:03:37.980Z,95221.00
2023-04-18T01:04:37.865Z,95219.00
2023-04-18T01:05:37.844Z,95217.00
2023-04-18T01:06:37.876Z,95217.00
2023-04-18T01:07:37.903Z,95219.00
2023-04-18T01:08:37.977Z,95219.00
2023-04-18T01:09:38.018Z,95223.00
2023-04-18T01:10:38.014Z,95219.00
2023-04-18T01:11:38.064Z,95221.00
2023-04-18T01:12:38.126Z,95223.00
2023-04-18T01:13:38.159Z,95219.00
2023-04-18T01:14:38.185Z,95219.00
2023-04-18T01:15:38.269Z,95219.00
2023-04-18T01:16:38.269Z,95219.00
2023-04-18T01:17:38.295Z,95217.00
2023-04-18T01:18:38.347Z,95217.00
2023-04-18T01:19:38.361Z,95216.00
2023-04-18T01:20:38.388Z,95217.00
2023-04-18T01:21:38.414Z,95217.00
2023-04-18T01:22:38.516Z,95216.00
2023-04-18T01:23:38.545Z,95214.00
2023-04-18T01:24:38.563Z,95212.00
2023-04-18T01:25:38.581Z,95212.00
2023-04-18T01:26:38.621Z,95210.00
2023-04-18T01:27:38.688Z,95212.00
2023-04-18T01:28:38.704Z,95212.00
2023-04-18T01:29:39.053Z,95212.00
2023-04-18T01:30:38.770Z,95210.00
2023-04-18T01:31:39.007Z,95210.00
2023-04-18T01:32:38.899Z,95206.00
2023-04-18T01:33:38.880Z,95208.00
2023-04-18T01:34:38.943Z,95206.00
2023-04-18T01:35:38.947Z,95206.00
2023-04-18T01:36:39.057Z,95204.00
2023-04-18T01:37:39.005Z,95206.00
2023-04-18T01:38:39.070Z,95204.00
2023-04-18T01:39:39.101Z,95204.00
2023-04-18T01:40:39.136Z,95204.00
2023-04-18T01:41:39.187Z,95202.00
2023-04-18T01:42:39.224Z,95204.00
2023-04-18T01:43:39.228Z,95204.00
2023-04-18T01:44:39.300Z,95200.00
2023-04-18T01:45:39.302Z,95202.00
2023-04-18T01:46:39.393Z,95202.00
2023-04-18T01:47:39.439Z,95202.00
2023-04-18T01:48:39.441Z,95200.00
2023-04-18T01:49:39.483Z,95202.00
2023-04-18T01:50:39.499Z,95204.00
2023-04-18T01:51:39.548Z,95204.00
2023-04-18T01:52:39.585Z,95200.00
2023-04-18T01:53:39.635Z,95202.00
2023-04-18T01:54:39.656Z,95202.00
2023-04-18T01:55:39.699Z,95204.00
2023-04-18T01:56:39.712Z,95208.00
2023-04-18T01:57:39.744Z,95206.00
2023-04-18T01:58:39.785Z,95206.00
2023-04-18T01:59:39.818Z,95206.00
2023-04-18T02:00:39.880Z,95208.00
2023-04-18T02:01:39.899Z,95210.00
2023-04-18T02:02:40.010Z,95208.00
2023-04-18T02:03:40.179Z,95210.00
2023-04-18T02:04:39.990Z,95206.00
2023-04-18T02:05:40.036Z,95208.00
2023-04-18T02:06:40.052Z,95204.00
2023-04-18T02:07:40.067Z,95206.00
2023-04-18T02:08:40.102Z,95204.00
2023-04-18T02:09:40.151Z,95206.00
2023-04-18T02:10:40.149Z,95206.00
2023-04-18T02:11:40.175Z,95204.00
2023-04-18T02:12:40.208Z,95206.00
2023-04-18T02:13:40.235Z,95204.00
2023-04-18T02:14:40.241Z,95204.00
2023-04-18T02:15:40.247Z,95204.00
2023-04-18T02:16:40.336Z,95204.00
2023-04-18T02:17:40.334Z,95204.00
2023-04-18T02:18:40.322Z,95204.00
2023-04-18T02:19:40.378Z,95204.00
2023-04-18T02:20:40.394Z,95202.00
2023-04-18T02:21:40.435Z,95202.00
2023-04-18T02:22:40.421Z,95202.00
2023-04-18T02:23:40.426Z,95204.00
2023-04-18T02:24:40.451Z,95202.00
2023-04-18T02:25:40.498Z,95206.00
2023-04-18T02:26:40.499Z,95204.00
2023-04-18T02:27:40.526Z,95204.00
2023-04-18T02:28:40.551Z,95204.00
2023-04-18T02:29:40.551Z,95206.00
2023-04-18T02:30:40.590Z,95204.00
2023-04-18T02:31:40.568Z,95208.00
2023-04-18T02:32:40.603Z,95210.00
2023-04-18T02:33:40.586Z,95208.00
2023-04-18T02:34:40.603Z,95208.00
2023-04-18T02:35:40.622Z,95212.00
2023-04-18T02:36:40.588Z,95210.00
2023-04-18T02:37:40.602Z,95210.00
2023-04-18T02:38:40.615Z,95208.00
2023-04-18T02:39:40.600Z,95206.00
2023-04-18T02:40:40.618Z,95204.00
2023-04-18T02:41:40.634Z,95206.00
2023-04-18T02:42:40.626Z,95208.00
2023-04-18T02:43:40.621Z,95206.00
2023-04-18T02:44:40.643Z,95208.00
2023-04-18T02:45:40.669Z,95210.00
2023-04-18T02:46:40.613Z,95208.00
2023-04-18T02:47:53.704Z,95210.00
2023-04-18T02:48:41.645Z,95212.00
2023-04-18T02:49:40.598Z,95210.00
2023-04-18T02:50:41.439Z,95208.00
2023-04-18T02:51:40.596Z,95210.00
2023-04-18T02:52:40.618Z,95206.00
2023-04-18T02:53:40.583Z,95206.00
2023-04-18T02:54:40.591Z,95204.00
2023-04-18T02:55:40.577Z,95206.00
2023-04-18T02:56:40.535Z,95206.00
2023-04-18T02:57:40.533Z,95202.00
2023-04-18T02:58:40.565Z,95200.00
2023-04-18T02:59:40.554Z,95200.00
2023-04-18T03:00:40.516Z,95198.00
2023-04-18T03:01:40.574Z,95200.00
2023-04-18T03:02:40.596Z,95200.00
2023-04-18T03:03:40.548Z,95200.00
2023-04-18T03:04:40.556Z,95198.00
2023-04-18T03:05:40.512Z,95200.00
2023-04-18T03:06:40.497Z,95202.00
2023-04-18T03:07:40.485Z,95200.00
2023-04-18T03:08:40.472Z,95198.00
2023-04-18T03:09:40.466Z,95202.00
2023-04-18T03:10:40.456Z,95198.00
2023-04-18T03:11:40.468Z,95198.00
2023-04-18T03:12:40.426Z,95198.00
2023-04-18T03:13:40.419Z,95194.00
2023-04-18T03:14:40.433Z,95196.00
2023-04-18T03:15:40.473Z,95196.00
2023-04-18T03:16:40.448Z,95196.00
2023-04-18T03:17:40.428Z,95194.00
2023-04-18T03:18:40.404Z,95194.00
2023-04-18T03:19:40.425Z,95186.00
2023-04-18T03:20:40.400Z,95198.00
2023-04-18T03:21:40.388Z,95200.00
2023-04-18T03:22:40.385Z,95196.00
2023-04-18T03:23:40.367Z,95200.00
2023-04-18T03:24:40.372Z,95196.00
2023-04-18T03:25:40.365Z,95194.00
2023-04-18T03:26:40.327Z,95198.00
2023-04-18T03:27:40.361Z,95194.00
2023-04-18T03:28:40.352Z,95186.00
2023-04-18T03:29:40.345Z,95184.00
2023-04-18T03:30:40.328Z,95184.00
2023-04-18T03:31:40.388Z,95186.00
2023-04-18T03:32:40.352Z,95186.00
2023-04-18T03:33:40.334Z,95186.00
2023-04-18T03:34:40.298Z,95184.00
2023-04-18T03:35:40.275Z,95194.00
2023-04-18T03:36:40.262Z,95196.00
2023-04-18T03:37:40.306Z,95194.00
2023-04-18T03:38:40.260Z,95194.00
2023-04-18T03:39:40.299Z,95196.00
2023-04-18T03:40:40.266Z,95194.00
2023-04-18T03:41:40.257Z,95194.00
2023-04-18T03:42:40.271Z,95194.00
2023-04-18T03:43:40.217Z,95196.00
2023-04-18T03:44:40.238Z,95194.00
2023-04-18T03:45:40.238Z,95186.00
2023-04-18T03:46:40.306Z,95186.00
2023-04-18T03:47:40.301Z,95184.00
2023-04-18T03:48:40.205Z,95182.00
2023-04-18T03:49:40.189Z,95182.00
2023-04-18T03:50:40.178Z,95182.00
2023-04-18T03:51:40.192Z,95184.00
2023-04-18T03:52:40.213Z,95182.00
2023-04-18T03:53:40.183Z,95184.00
2023-04-18T03:54:40.160Z,95186.00
2023-04-18T03:55:40.156Z,95186.00
2023-04-18T03:56:40.124Z,95186.00
2023-04-18T03:57:41.290Z,95186.00
2023-04-18T03:58:40.178Z,95186.00
2023-04-18T03:59:40.196Z,95186.00
2023-04-18T04:00:40.184Z,95186.00
2023-04-18T04:01:40.197Z,95194.00
2023-04-18T04:02:40.396Z,95186.00
2023-04-18T04:03:40.356Z,95186.00
2023-04-18T04:04:40.303Z,95194.00
2023-04-18T04:05:40.265Z,95184.00
2023-04-18T04:06:40.285Z,95186.00
2023-04-18T04:07:40.361Z,95186.00
2023-04-18T04:08:40.313Z,95194.00
2023-04-18T04:09:40.340Z,95194.00
2023-04-18T04:10:40.379Z,95186.00
2023-04-18T04:11:40.391Z,95194.00
2023-04-18T04:12:40.414Z,95194.00
2023-04-18T04:13:40.423Z,95194.00
2023-04-18T04:14:40.432Z,95196.00
2023-04-18T04:15:40.499Z,95196.00
2023-04-18T04:16:40.519Z,95194.00
2023-04-18T04:17:40.566Z,95194.00
2023-04-18T04:18:40.614Z,95194.00
2023-04-18T04:19:40.640Z,95198.00
2023-04-18T04:20:40.688Z,95194.00
2023-04-18T04:21:40.692Z,95196.00
2023-04-18T04:22:40.714Z,95198.00
2023-04-18T04:23:40.804Z,95198.00
2023-04-18T04:24:40.803Z,95202.00
2023-04-18T04:25:40.869Z,95200.00
2023-04-18T04:26:40.893Z,95204.00
2023-04-18T04:27:40.911Z,95204.00
2023-04-18T04:28:40.976Z,95206.00
2023-04-18T04:29:40.995Z,95202.00
2023-04-18T04:30:41.090Z,95206.00
2023-04-18T04:31:41.166Z,95202.00
2023-04-18T04:32:41.228Z,95206.00
2023-04-18T04:33:41.246Z,95206.00
2023-04-18T04:34:41.349Z,95206.00
2023-04-18T04:35:41.310Z,95210.00
2023-04-18T04:36:41.437Z,95206.00
2023-04-18T04:37:41.452Z,95208.00
2023-04-18T04:38:41.500Z,95208.00
2023-04-18T04:39:41.544Z,95210.00
2023-04-18T04:40:41.565Z,95210.00
2023-04-18T04:41:41.623Z,95210.00
2023-04-18T04:42:41.703Z,95212.00
2023-04-18T04:43:41.747Z,95212.00
2023-04-18T04:44:41.872Z,95212.00
2023-04-18T04:45:41.836Z,95212.00
2023-04-18T04:46:41.876Z,95212.00
2023-04-18T04:47:41.965Z,95214.00
2023-04-18T04:48:41.966Z,95214.00
2023-04-18T04:49:42.072Z,95212.00
2023-04-18T04:50:42.083Z,95214.00
2023-04-18T04:51:42.077Z,95216.00
2023-04-18T04:52:42.185Z,95214.00
2023-04-18T04:53:42.186Z,95214.00
2023-04-18T04:54:42.225Z,95216.00
2023-04-18T04:55:42.278Z,95216.00
2023-04-18T04:56:42.307Z,95217.00
2023-04-18T04:57:42.380Z,95217.00
2023-04-18T04:58:42.419Z,95217.00
2023-04-18T04:59:42.430Z,95219.00
2023-04-18T05:00:49.562Z,95219.00
2023-04-18T05:01:42.516Z,95219.00
2023-04-18T05:02:42.573Z,95219.00
2023-04-18T05:03:42.592Z,95217.00
2023-04-18T05:04:42.587Z,95219.00
2023-04-18T05:05:42.423Z,95219.00
2023-04-18T05:06:42.419Z,95219.00
2023-04-18T05:07:42.380Z,95219.00
2023-04-18T05:08:42.383Z,95221.00
2023-04-18T05:09:42.361Z,95223.00
2023-04-18T05:10:42.407Z,95219.00
2023-04-18T05:11:42.362Z,95221.00
2023-04-18T05:12:42.344Z,95225.00
2023-04-18T05:13:42.364Z,95225.00
2023-04-18T05:14:42.365Z,95223.00
2023-04-18T05:15:42.336Z,95225.00
2023-04-18T05:16:42.330Z,95225.00
2023-04-18T05:17:42.399Z,95227.00
2023-04-18T05:18:42.371Z,95227.00
2023-04-18T05:19:42.287Z,95229.00
2023-04-18T05:20:42.319Z,95231.00
2023-04-18T05:21:42.303Z,95231.00
2023-04-18T05:22:42.283Z,95227.00
2023-04-18T05:23:42.290Z,95231.00
2023-04-18T05:24:42.302Z,95227.00
2023-04-18T05:25:42.285Z,95227.00
2023-04-18T05:26:42.233Z,95229.00
2023-04-18T05:27:42.249Z,95229.00
2023-04-18T05:28:42.248Z,95225.00
2023-04-18T05:29:42.308Z,95231.00
2023-04-18T05:30:42.292Z,95231.00
2023-04-18T05:31:42.242Z,95229.00
2023-04-18T05:32:42.245Z,95229.00
2023-04-18T05:33:42.533Z,95229.00
2023-04-18T05:34:42.190Z,95229.00
2023-04-18T05:35:42.186Z,95229.00
2023-04-18T05:36:42.198Z,95229.00
2023-04-18T05:37:42.207Z,95229.00
2023-04-18T05:38:42.537Z,95229.00
2023-04-18T05:39:42.145Z,95227.00
2023-04-18T05:40:42.170Z,95225.00
2023-04-18T05:41:42.223Z,95231.00
2023-04-18T05:42:42.168Z,95229.00
2023-04-18T05:43:44.422Z,95229.00
2023-04-18T05:44:42.142Z,95231.00
2023-04-18T05:45:49.153Z,95233.00
2023-04-18T05:46:42.190Z,95237.00
2023-04-18T05:47:42.127Z,95235.00
2023-04-18T05:48:42.557Z,95235.00
2023-04-18T05:49:42.087Z,95233.00
2023-04-18T05:50:42.096Z,95235.00
2023-04-18T05:51:42.105Z,95235.00
2023-04-18T05:52:42.124Z,95239.00
2023-04-18T05:53:42.550Z,95239.00
2023-04-18T05:54:42.100Z,95239.00
2023-04-18T05:55:42.058Z,95243.00
2023-04-18T05:56:42.051Z,95245.00
2023-04-18T05:57:42.022Z,95245.00
2023-04-18T05:58:42.081Z,95249.00
2023-04-18T05:59:42.058Z,95247.00
2023-04-18T06:00:42.082Z,95249.00
2023-04-18T06:01:42.041Z,95247.00
2023-04-18T06:02:42.133Z,95249.00
2023-04-18T06:03:42.141Z,95247.00
2023-04-18T06:04:42.188Z,95251.00
2023-04-18T06:05:41.995Z,95249.00
2023-04-18T06:06:41.992Z,95249.00
2023-04-18T06:07:42.077Z,95253.00
2023-04-18T06:08:41.988Z,95253.00
2023-04-18T06:09:41.952Z,95259.00
2023-04-18T06:10:41.984Z,95257.00
2023-04-18T06:11:41.967Z,95257.00
2023-04-18T06:12:41.929Z,95257.00
2023-04-18T06:13:41.970Z,95259.00
2023-04-18T06:14:41.974Z,95259.00
2023-04-18T06:15:41.933Z,95263.00
2023-04-18T06:16:41.977Z,95263.00
2023-04-18T06:17:41.935Z,95261.00
2023-04-18T06:18:42.081Z,95263.00
2023-04-18T06:19:41.919Z,95263.00
2023-04-18T06:20:41.970Z,95263.00
2023-04-18T06:21:41.997Z,95263.00
2023-04-18T06:22:41.946Z,95264.00
2023-04-18T06:23:41.986Z,95263.00
2023-04-18T06:24:41.999Z,95261.00
2023-04-18T06:25:42.132Z,95263.00
2023-04-18T06:26:42.042Z,95263.00
2023-04-18T06:27:42.064Z,95261.00
2023-04-18T06:28:42.099Z,95263.00
2023-04-18T06:29:42.138Z,95263.00
2023-04-18T06:30:42.196Z,95264.00
2023-04-18T06:31:42.402Z,95264.00
2023-04-18T06:32:42.260Z,95263.00
2023-04-18T06:33:42.288Z,95264.00
2023-04-18T06:34:42.206Z,95264.00
2023-04-18T06:35:42.217Z,95266.00
2023-04-18T06:36:42.207Z,95266.00
2023-04-18T06:37:42.233Z,95268.00
2023-04-18T06:38:42.560Z,95264.00
2023-04-18T06:39:42.314Z,95264.00
2023-04-18T06:40:42.318Z,95266.00
2023-04-18T06:41:42.325Z,95266.00
2023-04-18T06:42:42.398Z,95264.00
2023-04-18T06:43:52.079Z,95264.00
2023-04-18T06:44:43.461Z,95266.00
2023-04-18T06:45:42.469Z,95264.00
2023-04-18T06:46:42.416Z,95266.00
2023-04-18T06:47:42.414Z,95264.00
2023-04-18T06:48:42.411Z,95261.00
2023-04-18T06:49:42.369Z,95261.00
2023-04-18T06:50:42.393Z,95263.00
2023-04-18T06:51:42.396Z,95261.00
2023-04-18T06:52:42.400Z,95261.00
2023-04-18T06:53:42.371Z,95261.00
2023-04-18T06:54:42.470Z,95263.00
2023-04-18T06:55:42.541Z,95263.00
2023-04-18T06:56:42.504Z,95264.00
2023-04-18T06:57:42.511Z,95263.00
2023-04-18T06:58:42.578Z,95266.00
2023-04-18T06:59:42.588Z,95264.00
2023-04-18T07:00:42.629Z,95263.00
2023-04-18T07:01:42.580Z,95263.00
2023-04-18T07:02:42.659Z,95263.00
2023-04-18T07:03:42.613Z,95261.00
2023-04-18T07:04:42.676Z,95264.00
2023-04-18T07:05:42.544Z,95263.00
2023-04-18T07:06:42.579Z,95263.00
2023-04-18T07:07:42.545Z,95263.00
2023-04-18T07:08:42.601Z,95259.00
2023-04-18T07:09:42.601Z,95259.00
2023-04-18T07:10:42.574Z,95259.00
2023-04-18T07:11:42.670Z,95263.00
2023-04-18T07:12:42.648Z,95263.00
2023-04-18T07:13:42.723Z,95261.00
2023-04-18T07:14:43.065Z,95263.00
2023-04-18T07:15:42.770Z,95263.00
2023-04-18T07:16:42.841Z,95261.00
2023-04-18T07:17:42.934Z,95261.00
2023-04-18T07:18:42.930Z,95261.00
2023-04-18T07:19:42.995Z,95261.00
2023-04-18T07:20:43.081Z,95259.00
2023-04-18T07:21:43.151Z,95259.00
2023-04-18T07:22:43.215Z,95255.00
2023-04-18T07:23:43.267Z,95255.00
2023-04-18T07:24:43.338Z,95257.00
2023-04-18T07:25:43.390Z,95257.00
2023-04-18T07:26:43.481Z,95261.00
2023-04-18T07:27:43.584Z,95261.00
2023-04-18T07:28:43.618Z,95259.00
2023-04-18T07:29:44.117Z,95263.00
2023-04-18T07:30:43.759Z,95263.00
2023-04-18T07:31:43.783Z,95259.00
2023-04-18T07:32:43.863Z,95261.00
2023-04-18T07:33:43.916Z,95261.00
2023-04-18T07:34:43.929Z,95261.00
2023-04-18T07:35:43.941Z,95259.00
2023-04-18T07:36:43.921Z,95263.00
2023-04-18T07:37:44.019Z,95263.00
2023-04-18T07:38:44.040Z,95263.00
2023-04-18T07:39:44.096Z,95261.00
2023-04-18T07:40:44.084Z,95266.00
2023-04-18T07:41:44.096Z,95266.00
2023-04-18T07:42:44.076Z,95266.00
2023-04-18T07:43:44.142Z,95268.00
2023-04-18T07:44:44.074Z,95266.00
2023-04-18T07:45:44.091Z,95270.00
2023-04-18T07:46:44.135Z,95268.00
2023-04-18T07:47:44.169Z,95266.00
2023-04-18T07:48:44.131Z,95268.00
2023-04-18T07:49:44.096Z,95264.00
2023-04-18T07:50:44.103Z,95264.00
2023-04-18T07:51:44.114Z,95263.00
2023-04-18T07:52:44.175Z,95266.00
2023-04-18T07:53:44.234Z,95266.00
2023-04-18T07:54:44.300Z,95264.00
2023-04-18T07:55:44.365Z,95264.00
2023-04-18T07:56:44.386Z,95264.00
2023-04-18T07:57:45.859Z,95264.00
2023-04-18T07:58:44.498Z,95264.00
2023-04-18T07:59:44.647Z,95263.00
2023-04-18T08:00:44.609Z,95264.00
2023-04-18T08:01:44.662Z,95263.00
2023-04-18T08:02:44.713Z,95264.00
2023-04-18T08:03:44.816Z,95263.00
2023-04-18T08:04:44.893Z,95259.00
2023-04-18T08:05:44.780Z,95261.00
2023-04-18T08:06:44.776Z,95257.00
2023-04-18T08:07:44.867Z,95257.00
2023-04-18T08:08:44.912Z,95259.00
2023-04-18T08:09:44.894Z,95261.00
2023-04-18T08:10:44.869Z,95259.00
2023-04-18T08:11:44.933Z,95259.00
2023-04-18T08:12:44.912Z,95261.00
2023-04-18T08:13:44.955Z,95257.00
2023-04-18T08:14:44.987Z,95255.00
2023-04-18T08:15:45.119Z,95257.00
2023-04-18T08:16:44.955Z,95259.00
2023-04-18T08:17:45.064Z,95255.00
2023-04-18T08:18:44.981Z,95255.00
2023-04-18T08:19:44.950Z,95255.00
2023-04-18T08:20:45.033Z,95255.00
2023-04-18T08:21:44.997Z,95253.00
2023-04-18T08:23:01.973Z,95251.00
2023-04-18T08:23:45.974Z,95251.00
2023-04-18T08:24:57.456Z,95253.00
2023-04-18T08:25:45.980Z,95247.00
2023-04-18T08:26:44.972Z,95251.00
2023-04-18T08:27:44.950Z,95251.00
2023-04-18T08:28:46.585Z,95253.00
2023-04-18T08:29:45.090Z,95249.00
2023-04-18T08:30:44.921Z,95249.00
2023-04-18T08:31:45.038Z,95247.00
2023-04-18T08:32:44.956Z,95247.00
2023-04-18T08:33:44.952Z,95243.00
2023-04-18T08:34:45.129Z,95241.00
2023-04-18T08:35:44.893Z,95243.00
2023-04-18T08:36:45.658Z,95239.00
2023-04-18T08:37:44.881Z,95241.00
2023-04-18T08:38:44.862Z,95241.00
2023-04-18T08:39:44.866Z,95237.00
2023-04-18T08:40:44.854Z,95239.00
2023-04-18T08:41:44.829Z,95239.00
2023-04-18T08:42:44.834Z,95239.00
2023-04-18T08:43:44.818Z,95239.00
2023-04-18T08:44:44.839Z,95239.00
2023-04-18T08:45:44.988Z,95245.00
2023-04-18T08:46:45.008Z,95243.00
2023-04-18T08:47:45.108Z,95243.00
2023-04-18T08:48:45.076Z,95241.00
2023-04-18T08:49:45.148Z,95243.00
2023-04-18T08:50:45.098Z,95247.00
2023-04-18T08:51:45.068Z,95247.00
2023-04-18T08:52:45.042Z,95247.00
2023-04-18T08:53:45.097Z,95247.00
2023-04-18T08:54:45.084Z,95247.00
2023-04-18T08:55:45.108Z,95243.00
2023-04-18T08:56:45.119Z,95245.00
2023-04-18T08:57:45.142Z,95245.00
2023-04-18T08:58:45.225Z,95249.00
2023-04-18T08:59:47.114Z,95249.00
2023-04-18T09:00:45.129Z,95245.00
2023-04-18T09:01:45.197Z,95245.00
2023-04-18T09:02:45.349Z,95245.00
2023-04-18T09:03:45.313Z,95239.00
2023-04-18T09:04:45.145Z,95241.00
2023-04-18T09:05:45.116Z,95245.00
2023-04-18T09:06:45.101Z,95241.00
2023-04-18T09:07:45.114Z,95245.00
2023-04-18T09:08:45.102Z,95247.00
2023-04-18T09:09:45.128Z,95241.00
2023-04-18T09:10:46.755Z,95241.00
2023-04-18T09:11:45.044Z,95245.00
2023-04-18T09:12:45.048Z,95241.00
2023-04-18T09:13:45.084Z,95239.00
2023-04-18T09:14:45.076Z,95239.00
2023-04-18T09:15:45.068Z,95243.00
2023-04-18T09:16:45.078Z,95241.00
2023-04-18T09:17:45.090Z,95241.00
2023-04-18T09:18:45.018Z,95241.00
2023-04-18T09:19:45.392Z,95239.00
2023-04-18T09:20:44.998Z,95237.00
2023-04-18T09:21:45.009Z,95235.00
2023-04-18T09:22:45.032Z,95235.00
2023-04-18T09:23:45.011Z,95237.00
2023-04-18T09:24:45.191Z,95239.00
2023-04-18T09:25:45.410Z,95237.00
2023-04-18T09:26:44.987Z,95231.00
2023-04-18T09:27:44.963Z,95229.00
2023-04-18T09:28:45.020Z,95235.00
2023-04-18T09:29:44.993Z,95227.00
2023-04-18T09:30:45.049Z,95227.00
2023-04-18T09:31:45.016Z,95227.00
2023-04-18T09:32:45.079Z,95225.00
2023-04-18T09:33:45.017Z,95223.00
2023-04-18T09:34:45.071Z,95223.00
2023-04-18T09:35:45.026Z,95219.00
2023-04-18T09:36:45.112Z,95223.00
2023-04-18T09:37:45.052Z,95219.00
2023-04-18T09:38:45.012Z,95221.00
2023-04-18T09:39:45.108Z,95221.00
2023-04-18T09:40:45.140Z,95219.00
2023-04-18T09:41:46.907Z,95216.00
2023-04-18T09:42:45.292Z,95214.00
2023-04-18T09:43:45.050Z,95216.00
2023-04-18T09:44:45.101Z,95219.00
2023-04-18T09:45:45.171Z,95210.00
2023-04-18T09:46:47.154Z,95212.00
2023-04-18T09:47:45.320Z,95214.00
2023-04-18T09:48:45.300Z,95208.00
2023-04-18T09:49:45.290Z,95214.00
2023-04-18T09:50:45.680Z,95216.00
2023-04-18T09:51:45.300Z,95217.00
2023-04-18T09:52:45.378Z,95216.00
2023-04-18T09:53:45.364Z,95212.00
2023-04-18T09:54:47.115Z,95214.00
2023-04-18T09:55:45.352Z,95217.00
2023-04-18T09:56:45.359Z,95216.00
2023-04-18T09:57:45.328Z,95212.00
2023-04-18T09:58:45.323Z,95216.00
2023-04-18T09:59:45.341Z,95219.00
2023-04-18T10:00:46.925Z,95217.00
2023-04-18T10:01:45.350Z,95217.00
2023-04-18T10:02:45.377Z,95216.00
2023-04-18T10:03:45.361Z,95210.00
2023-04-18T10:04:45.357Z,95212.00
2023-04-18T10:05:45.338Z,95208.00
2023-04-18T10:06:45.272Z,95208.00
2023-04-18T10:07:45.244Z,95204.00
2023-04-18T10:08:45.296Z,95204.00
2023-04-18T10:09:45.235Z,95202.00
2023-04-18T10:10:45.286Z,95200.00
2023-04-18T10:11:45.245Z,95200.00
2023-04-18T10:12:45.209Z,95194.00
2023-04-18T10:13:45.231Z,95196.00
2023-04-18T10:14:45.296Z,95198.00
2023-04-18T10:15:45.733Z,95196.00
2023-04-18T10:16:45.441Z,95196.00
2023-04-18T10:17:56.201Z,95194.00
2023-04-18T10:18:46.506Z,95184.00
2023-04-18T10:19:45.495Z,95194.00
2023-04-18T10:20:45.650Z,95184.00
2023-04-18T10:21:45.446Z,95182.00
2023-04-18T10:22:45.452Z,95182.00
2023-04-18T10:23:45.601Z,95180.00
2023-04-18T10:24:45.424Z,95182.00
2023-04-18T10:25:45.459Z,95182.00
2023-04-18T10:26:45.431Z,95178.00
2023-04-18T10:27:45.462Z,95178.00
2023-04-18T10:28:46.015Z,95180.00
2023-04-18T10:29:45.608Z,95176.00
2023-04-18T10:30:46.175Z,95180.00
2023-04-18T10:31:45.764Z,95178.00
2023-04-18T10:32:45.788Z,95176.00
2023-04-18T10:33:52.808Z,95172.00
2023-04-18T10:34:46.813Z,95174.00
2023-04-18T10:35:46.166Z,95172.00
2023-04-18T10:36:45.815Z,95171.00
2023-04-18T10:37:45.774Z,95169.00
2023-04-18T10:38:45.827Z,95165.00
2023-04-18T10:39:45.867Z,95163.00
2023-04-18T10:40:46.200Z,95163.00
2023-04-18T10:41:45.859Z,95165.00
2023-04-18T10:42:45.753Z,95163.00
2023-04-18T10:43:45.749Z,95163.00
2023-04-18T10:44:45.782Z,95159.00
2023-04-18T10:45:45.923Z,95157.00
2023-04-18T10:46:45.936Z,95163.00
2023-04-18T10:47:46.060Z,95163.00
2023-04-18T10:48:46.089Z,95159.00
2023-04-18T10:49:46.027Z,95157.00
2023-04-18T10:50:46.067Z,95153.00
2023-04-18T10:51:46.195Z,95155.00
2023-04-18T10:52:46.081Z,95153.00
2023-04-18T10:53:46.093Z,95153.00
2023-04-18T10:54:46.106Z,95155.00
2023-04-18T10:55:46.112Z,95151.00
2023-04-18T10:56:46.179Z,95149.00
2023-04-18T10:57:46.112Z,95149.00
2023-04-18T10:58:46.114Z,95147.00
2023-04-18T10:59:46.143Z,95143.00
2023-04-18T11:00:46.162Z,95149.00
2023-04-18T11:01:46.139Z,95145.00
2023-04-18T11:02:46.242Z,95149.00
2023-04-18T11:03:46.186Z,95145.00
2023-04-18T11:04:46.109Z,95139.00
2023-04-18T11:05:46.094Z,95143.00
2023-04-18T11:06:46.172Z,95135.00
2023-04-18T11:07:46.142Z,95137.00
2023-04-18T11:08:46.678Z,95137.00
2023-04-18T11:09:46.193Z,95137.00
2023-04-18T11:10:46.167Z,95137.00
2023-04-18T11:11:46.250Z,95131.00
2023-04-18T11:12:46.214Z,95133.00
2023-04-18T11:13:46.253Z,95131.00
2023-04-18T11:14:46.296Z,95131.00
2023-04-18T11:15:46.287Z,95131.00
2023-04-18T11:16:46.318Z,95129.00
2023-04-18T11:17:46.391Z,95124.00
2023-04-18T11:18:46.357Z,95125.00
2023-04-18T11:19:46.372Z,95125.00
2023-04-18T11:20:46.378Z,95124.00
2023-04-18T11:21:46.689Z,95120.00
2023-04-18T11:22:46.383Z,95127.00
2023-04-18T11:23:46.396Z,95122.00
2023-04-18T11:24:46.356Z,95122.00
2023-04-18T11:25:46.401Z,95122.00
2023-04-18T11:26:46.450Z,95122.00
2023-04-18T11:27:46.519Z,95120.00
2023-04-18T11:28:46.572Z,95118.00
2023-04-18T11:29:47.679Z,95125.00
2023-04-18T11:30:46.666Z,95124.00
2023-04-18T11:31:47.280Z,95122.00
2023-04-18T11:32:46.795Z,95125.00
2023-04-18T11:33:46.770Z,95122.00
2023-04-18T11:34:47.178Z,95122.00
2023-04-18T11:35:46.872Z,95120.00
2023-04-18T11:36:47.169Z,95122.00
2023-04-18T11:37:46.891Z,95124.00
2023-04-18T11:38:46.941Z,95120.00
2023-04-18T11:39:47.231Z,95120.00
2023-04-18T11:40:47.021Z,95118.00
2023-04-18T11:41:47.188Z,95120.00
2023-04-18T11:42:47.125Z,95118.00
2023-04-18T11:43:47.186Z,95120.00
2023-04-18T11:44:47.254Z,95114.00